createdAt,value
2018-07-26T00:00:09.304Z,7.53
2018-07-26T00:02:37.642Z,7.50
2018-07-26T00:05:05.946Z,6.77
2018-07-26T00:07:34.655Z,7.23
2018-07-26T00:10:02.952Z,7.03
2018-07-26T00:12:31.252Z,7.40
2018-07-26T00:14:59.504Z,7.57
2018-07-26T00:17:27.834Z,7.03
2018-07-26T00:19:56.108Z,7.10
2018-07-26T00:22:24.396Z,7.00
2018-07-26T00:24:52.652Z,7.07
2018-07-26T00:27:20.948Z,7.17
2018-07-26T00:29:49.297Z,7.27
2018-07-26T00:32:17.558Z,6.77
2018-07-26T00:34:45.849Z,6.60
2018-07-26T00:37:14.107Z,7.10
2018-07-26T00:39:42.384Z,7.20
2018-07-26T00:42:10.811Z,6.90
2018-07-26T00:44:39.101Z,7.00
2018-07-26T00:47:07.384Z,7.23
2018-07-26T00:49:35.645Z,6.93
2018-07-26T00:52:03.924Z,6.70
2018-07-26T00:54:32.265Z,6.57
2018-07-26T00:57:00.544Z,6.53
2018-07-26T00:59:28.814Z,6.37
2018-07-26T01:01:57.400Z,7.10
2018-07-26T01:04:25.670Z,6.87
2018-07-26T01:06:53.951Z,6.37
2018-07-26T01:09:21.956Z,6.43
2018-07-26T01:11:50.237Z,6.70
2018-07-26T01:14:18.559Z,6.47
2018-07-26T01:16:46.819Z,6.67
2018-07-26T01:19:15.101Z,6.77
2018-07-26T01:21:43.476Z,6.47
2018-07-26T01:24:11.754Z,5.93
2018-07-26T01:26:40.036Z,6.80
2018-07-26T01:29:08.337Z,6.43
2018-07-26T01:31:36.616Z,6.90
2018-07-26T01:34:04.895Z,6.63
2018-07-26T01:36:33.206Z,6.70
2018-07-26T01:39:01.468Z,6.30
2018-07-26T01:41:29.730Z,6.23
2018-07-26T01:44:09.404Z,6.30
2018-07-26T01:46:37.704Z,6.17
2018-07-26T01:49:06.024Z,6.00
2018-07-26T01:51:34.292Z,6.20
2018-07-26T01:54:02.599Z,5.87
2018-07-26T01:56:30.909Z,6.20
2018-07-26T01:58:59.211Z,6.07
2018-07-26T02:01:27.520Z,5.97
2018-07-26T02:03:55.514Z,5.70
2018-07-26T02:06:23.831Z,6.00
2018-07-26T02:08:52.095Z,5.97
2018-07-26T02:11:20.383Z,5.93
2018-07-26T02:13:48.657Z,6.37
2018-07-26T02:16:17.084Z,5.50
2018-07-26T02:18:45.341Z,5.90
2018-07-26T02:21:13.697Z,5.60
2018-07-26T02:23:41.959Z,5.53
2018-07-26T02:26:09.975Z,5.70
2018-07-26T02:28:38.260Z,6.03
2018-07-26T02:31:06.651Z,5.93
2018-07-26T02:33:34.959Z,5.80
2018-07-26T02:36:03.235Z,5.37
2018-07-26T02:38:31.607Z,5.20
2018-07-26T02:40:59.881Z,5.87
2018-07-26T02:43:28.168Z,5.43
2018-07-26T02:45:56.557Z,4.97
2018-07-26T02:48:24.818Z,5.30
2018-07-26T02:50:53.106Z,5.20
2018-07-26T02:53:21.397Z,4.90
2018-07-26T02:55:49.679Z,5.00
2018-07-26T02:58:17.969Z,5.30
2018-07-26T03:00:46.331Z,5.10
2018-07-26T03:03:14.610Z,4.80
2018-07-26T03:05:42.885Z,4.80
2018-07-26T03:08:11.158Z,6.33
2018-07-26T03:10:39.469Z,4.40
2018-07-26T03:13:07.726Z,4.67
2018-07-26T03:15:36.013Z,4.90
2018-07-26T03:18:04.277Z,5.17
2018-07-26T03:20:32.591Z,5.00
2018-07-26T03:23:00.854Z,4.87
2018-07-26T03:25:29.127Z,4.77
2018-07-26T03:27:57.397Z,5.00
2018-07-26T03:30:25.685Z,4.80
2018-07-26T03:32:53.947Z,4.63
2018-07-26T03:35:22.223Z,4.40
2018-07-26T03:37:50.516Z,4.70
2018-07-26T03:40:18.827Z,4.77
2018-07-26T03:42:47.112Z,5.13
2018-07-26T03:45:15.372Z,4.93
2018-07-26T03:47:43.653Z,4.73
2018-07-26T03:50:11.921Z,4.40
2018-07-26T03:52:40.215Z,4.63
2018-07-26T03:55:08.489Z,4.77
2018-07-26T03:57:36.759Z,4.80
2018-07-26T04:00:05.493Z,4.57
2018-07-26T04:02:33.764Z,4.30
2018-07-26T04:05:02.057Z,4.83
2018-07-26T04:07:30.356Z,4.03
2018-07-26T04:09:58.647Z,4.60
2018-07-26T04:12:26.922Z,4.10
2018-07-26T04:14:55.208Z,4.30
2018-07-26T04:17:23.525Z,5.00
2018-07-26T04:19:51.795Z,4.73
2018-07-26T04:22:20.072Z,4.43
2018-07-26T04:24:48.359Z,3.97
2018-07-26T04:27:16.620Z,4.30
2018-07-26T04:29:44.904Z,4.00
2018-07-26T04:32:13.198Z,4.10
2018-07-26T04:34:41.488Z,3.93
2018-07-26T04:37:09.792Z,4.00
2018-07-26T04:39:38.052Z,4.30
2018-07-26T04:42:06.435Z,4.20
2018-07-26T04:44:34.715Z,3.70
2018-07-26T04:47:03.088Z,4.33
2018-07-26T04:49:31.352Z,4.47
2018-07-26T04:51:59.642Z,4.30
2018-07-26T04:54:27.926Z,4.90
2018-07-26T04:56:56.316Z,4.67
2018-07-26T04:59:24.599Z,4.40
2018-07-26T05:01:52.896Z,4.40
2018-07-26T05:04:21.172Z,4.93
2018-07-26T05:06:49.440Z,4.63
2018-07-26T05:09:17.828Z,5.20
2018-07-26T05:11:46.120Z,4.40
2018-07-26T05:14:14.382Z,4.87
2018-07-26T05:16:42.670Z,4.90
2018-07-26T05:19:11.045Z,4.30
2018-07-26T05:21:39.349Z,4.57
2018-07-26T05:24:09.861Z,5.10
2018-07-26T05:26:38.798Z,4.40
2018-07-26T05:29:07.172Z,5.13
2018-07-26T05:31:35.440Z,4.90
2018-07-26T05:34:03.706Z,5.17
2018-07-26T05:36:31.974Z,4.73
2018-07-26T05:39:00.248Z,5.33
2018-07-26T05:41:28.514Z,5.10
2018-07-26T05:43:56.874Z,5.27
2018-07-26T05:46:25.140Z,5.73
2018-07-26T05:48:53.424Z,5.87
2018-07-26T05:51:21.745Z,5.50
2018-07-26T05:53:50.029Z,5.50
2018-07-26T05:56:18.312Z,5.60
2018-07-26T05:58:46.960Z,5.83
2018-07-26T06:01:15.231Z,5.80
2018-07-26T06:03:43.493Z,5.30
2018-07-26T06:06:11.777Z,5.33
2018-07-26T06:08:40.069Z,5.43
2018-07-26T06:11:08.352Z,5.30
2018-07-26T06:13:36.633Z,5.40
2018-07-26T06:16:04.928Z,5.30
2018-07-26T06:18:33.213Z,5.40
2018-07-26T06:21:01.500Z,5.53
2018-07-26T06:23:29.838Z,5.30
2018-07-26T06:25:57.873Z,5.63
2018-07-26T06:28:26.201Z,5.77
2018-07-26T06:30:54.634Z,5.27
2018-07-26T06:33:22.961Z,6.00
2018-07-26T06:35:51.169Z,5.73
2018-07-26T06:38:19.423Z,5.37
2018-07-26T06:40:47.711Z,5.87
2018-07-26T06:43:15.996Z,5.80
2018-07-26T06:45:44.041Z,5.03
2018-07-26T06:48:12.318Z,5.13
2018-07-26T06:50:40.598Z,5.80
2018-07-26T06:53:08.901Z,5.73
2018-07-26T06:55:37.140Z,5.00
2018-07-26T06:58:05.411Z,4.43
2018-07-26T07:00:33.713Z,4.77
2018-07-26T07:03:02.003Z,5.07
2018-07-26T07:05:30.295Z,5.10
2018-07-26T07:07:58.600Z,4.53
2018-07-26T07:10:26.873Z,6.33
2018-07-26T07:12:55.151Z,4.40
2018-07-26T07:15:23.437Z,4.53
2018-07-26T07:17:51.739Z,4.70
2018-07-26T07:20:20.017Z,4.30
2018-07-26T07:22:48.301Z,4.10
2018-07-26T07:25:16.572Z,4.27
2018-07-26T07:27:44.850Z,3.97
2018-07-26T07:30:13.565Z,4.10
2018-07-26T07:32:42.545Z,7.23
2018-07-26T07:35:10.933Z,4.10
2018-07-26T07:37:39.833Z,4.13
2018-07-26T07:40:08.813Z,4.03
2018-07-26T07:42:37.137Z,3.80
2018-07-26T07:45:06.330Z,3.80
2018-07-26T07:47:34.661Z,3.83
2018-07-26T07:50:02.925Z,4.00
2018-07-26T07:52:31.229Z,4.60
2018-07-26T07:54:59.512Z,4.00
2018-07-26T07:57:27.819Z,3.60
2018-07-26T07:59:56.173Z,3.60
2018-07-26T08:02:24.452Z,3.63
2018-07-26T08:04:52.800Z,5.23
2018-07-26T08:07:20.803Z,3.40
2018-07-26T08:09:49.110Z,4.33
2018-07-26T08:12:17.391Z,3.50
2018-07-26T08:14:45.669Z,3.97
2018-07-26T08:17:14.197Z,4.07
2018-07-26T08:19:42.486Z,4.40
2018-07-26T08:22:10.779Z,4.07
2018-07-26T08:24:39.109Z,3.70
2018-07-26T08:27:07.429Z,3.70
2018-07-26T08:29:35.723Z,4.40
2018-07-26T08:32:03.726Z,4.40
2018-07-26T08:34:32.003Z,4.57
2018-07-26T08:37:00.263Z,3.93
2018-07-26T08:39:28.556Z,4.20
2018-07-26T08:41:56.831Z,3.60
2018-07-26T08:44:24.853Z,4.33
2018-07-26T08:46:53.254Z,4.30
2018-07-26T08:49:21.526Z,6.47
2018-07-26T08:51:49.533Z,6.23
2018-07-26T08:54:17.847Z,3.50
2018-07-26T08:56:46.059Z,3.67
2018-07-26T08:59:14.343Z,4.50
2018-07-26T09:01:42.619Z,3.93
2018-07-26T09:04:10.929Z,5.83
2018-07-26T09:06:39.207Z,4.50
2018-07-26T09:09:09.651Z,3.47
2018-07-26T09:11:38.129Z,6.43
2018-07-26T09:14:06.631Z,4.07
2018-07-26T09:16:35.029Z,5.83
2018-07-26T09:19:03.319Z,3.57
2018-07-26T09:21:31.599Z,4.60
2018-07-26T09:23:59.621Z,3.83
2018-07-26T09:26:28.002Z,4.17
2018-07-26T09:28:56.337Z,3.93
2018-07-26T09:31:24.641Z,4.70
2018-07-26T09:33:52.940Z,4.00
2018-07-26T09:36:21.215Z,4.17
2018-07-26T09:38:49.497Z,4.37
2018-07-26T09:41:17.772Z,5.03
2018-07-26T09:43:46.055Z,4.83
2018-07-26T09:46:14.718Z,4.23
2018-07-26T09:48:43.187Z,4.17
2018-07-26T09:51:11.497Z,5.43
2018-07-26T09:53:39.765Z,4.23
2018-07-26T09:56:08.052Z,4.97
2018-07-26T09:58:36.064Z,4.57
2018-07-26T10:01:09.777Z,4.17
2018-07-26T10:03:38.102Z,3.90
2018-07-26T10:06:06.400Z,4.77
2018-07-26T10:08:34.804Z,4.37
2018-07-26T10:11:03.094Z,6.60
2018-07-26T10:13:31.412Z,4.00
2018-07-26T10:15:59.746Z,4.03
2018-07-26T10:18:27.990Z,4.87
2018-07-26T10:20:56.301Z,3.80
2018-07-26T10:23:24.596Z,4.40
2018-07-26T10:25:52.872Z,3.70
2018-07-26T10:28:20.956Z,6.63
2018-07-26T10:30:49.208Z,5.40
2018-07-26T10:33:17.466Z,8.40
2018-07-26T10:35:45.473Z,8.50
2018-07-26T10:38:13.730Z,3.63
2018-07-26T10:40:41.996Z,3.50
2018-07-26T10:43:10.268Z,3.37
2018-07-26T10:45:38.552Z,12.30
2018-07-26T10:48:06.927Z,16.30
2018-07-26T10:50:35.212Z,12.83
2018-07-26T10:53:03.520Z,5.07
2018-07-26T10:55:31.816Z,6.50
2018-07-26T10:58:00.092Z,4.50
2018-07-26T11:00:28.384Z,5.53
2018-07-26T11:02:56.658Z,4.10
2018-07-26T11:05:24.976Z,4.80
2018-07-26T11:07:52.970Z,4.60
2018-07-26T11:10:21.260Z,4.80
2018-07-26T11:12:49.540Z,5.73
2018-07-26T11:15:23.544Z,9.50
2018-07-26T11:17:51.861Z,3.90
2018-07-26T11:20:20.204Z,8.40
2018-07-26T11:22:48.485Z,4.60
2018-07-26T11:25:16.766Z,6.60
2018-07-26T11:27:45.033Z,12.97
2018-07-26T11:30:13.344Z,7.47
2018-07-26T11:32:41.687Z,5.70
2018-07-26T11:35:10.512Z,3.43
2018-07-26T11:37:38.806Z,6.53
2018-07-26T11:40:07.082Z,3.87
2018-07-26T11:42:35.382Z,3.97
2018-07-26T11:45:03.908Z,7.10
2018-07-26T11:47:32.214Z,6.57
2018-07-26T11:50:00.527Z,7.90
2018-07-26T11:52:28.826Z,10.07
2018-07-26T11:54:57.080Z,9.63
2018-07-26T11:57:25.401Z,3.63
2018-07-26T11:59:53.690Z,3.50
2018-07-26T12:02:22.074Z,6.10
2018-07-26T12:04:50.606Z,3.90
2018-07-26T12:07:18.883Z,4.33
2018-07-26T12:09:47.224Z,5.37
2018-07-26T12:12:15.524Z,4.10
2018-07-26T12:14:43.852Z,5.57
2018-07-26T12:17:12.143Z,5.63
2018-07-26T12:19:40.492Z,5.70
2018-07-26T12:22:08.746Z,6.87
2018-07-26T12:24:37.044Z,4.33
2018-07-26T12:27:05.573Z,5.20
2018-07-26T12:29:33.845Z,4.50
2018-07-26T12:32:01.879Z,5.67
2018-07-26T12:34:30.172Z,6.37
2018-07-26T12:36:58.888Z,4.57
2018-07-26T12:39:27.146Z,4.47
2018-07-26T12:41:55.452Z,7.07
2018-07-26T12:44:23.502Z,5.33
2018-07-26T12:46:51.776Z,3.90
2018-07-26T12:49:20.139Z,4.23
2018-07-26T12:51:48.428Z,4.37
2018-07-26T12:54:16.822Z,3.30
2018-07-26T12:56:45.134Z,3.80
2018-07-26T12:59:13.416Z,2.90
2018-07-26T13:01:41.699Z,2.83
2018-07-26T13:04:10.013Z,2.63
2018-07-26T13:06:38.305Z,4.13
2018-07-26T13:09:08.057Z,3.93
2018-07-26T13:11:36.358Z,3.47
2018-07-26T13:14:05.708Z,4.33
2018-07-26T13:16:33.985Z,3.33
2018-07-26T13:19:02.250Z,5.07
2018-07-26T13:21:30.252Z,3.87
2018-07-26T13:23:58.550Z,3.50
2018-07-26T13:26:26.812Z,3.33
2018-07-26T13:28:55.096Z,3.63
2018-07-26T13:31:23.400Z,7.97
2018-07-26T13:33:51.674Z,3.80
2018-07-26T13:36:19.972Z,3.60
2018-07-26T13:38:48.256Z,3.20
2018-07-26T13:41:16.519Z,3.20
2018-07-26T13:43:44.834Z,3.53
2018-07-26T13:46:13.112Z,3.40
2018-07-26T13:48:41.373Z,3.00
2018-07-26T13:51:09.932Z,3.20
2018-07-26T13:53:38.220Z,3.60
2018-07-26T13:56:06.534Z,3.33
2018-07-26T13:58:34.815Z,3.30
2018-07-26T14:01:03.101Z,3.20
2018-07-26T14:03:31.385Z,3.53
2018-07-26T14:05:59.690Z,3.33
2018-07-26T14:08:27.980Z,3.20
2018-07-26T14:10:56.270Z,3.40
2018-07-26T14:13:24.580Z,3.20
2018-07-26T14:15:52.935Z,4.80
2018-07-26T14:18:21.175Z,3.07
2018-07-26T14:20:49.501Z,3.07
2018-07-26T14:23:23.196Z,3.33
2018-07-26T14:25:51.580Z,3.50
2018-07-26T14:28:19.874Z,3.43
2018-07-26T14:30:48.148Z,3.00
2018-07-26T14:33:16.427Z,3.00
2018-07-26T14:35:44.741Z,3.00
2018-07-26T14:38:13.078Z,3.80
2018-07-26T14:40:41.343Z,3.00
2018-07-26T14:43:09.628Z,3.03
2018-07-26T14:45:37.916Z,2.80
2018-07-26T14:48:06.221Z,2.90
2018-07-26T14:50:34.517Z,3.10
2018-07-26T14:53:02.803Z,3.07
2018-07-26T14:55:31.217Z,2.80
2018-07-26T14:57:59.483Z,3.93
2018-07-26T15:00:27.820Z,2.70
2018-07-26T15:02:56.063Z,2.70
2018-07-26T15:05:24.359Z,3.03
2018-07-26T15:07:52.659Z,4.53
2018-07-26T15:10:20.895Z,3.40
2018-07-26T15:12:49.183Z,3.07
2018-07-26T15:15:17.479Z,3.00
2018-07-26T15:17:45.754Z,3.20
2018-07-26T15:20:14.159Z,2.90
2018-07-26T15:22:42.457Z,2.50
2018-07-26T15:25:10.732Z,3.00
2018-07-26T15:27:39.046Z,2.60
2018-07-26T15:30:07.399Z,4.10
2018-07-26T15:32:35.689Z,2.77
2018-07-26T15:35:04.229Z,3.03
2018-07-26T15:37:32.536Z,2.90
2018-07-26T15:40:00.837Z,3.00
2018-07-26T15:42:29.107Z,2.70
2018-07-26T15:44:57.407Z,3.13
2018-07-26T15:47:25.703Z,3.30
2018-07-26T15:49:54.005Z,3.10
2018-07-26T15:52:22.285Z,2.93
2018-07-26T15:54:50.554Z,3.27
2018-07-26T15:57:18.862Z,4.40
2018-07-26T15:59:47.145Z,7.20
2018-07-26T16:02:15.174Z,3.67
2018-07-26T16:04:43.437Z,5.00
2018-07-26T16:07:11.730Z,4.67
2018-07-26T16:09:40.012Z,5.03
2018-07-26T16:12:08.287Z,5.03
2018-07-26T16:14:36.575Z,13.43
2018-07-26T16:17:04.954Z,9.87
2018-07-26T16:19:33.231Z,11.30
2018-07-26T16:22:01.605Z,23.73
2018-07-26T16:24:30.098Z,20.27
2018-07-26T16:26:58.401Z,24.03
2018-07-26T16:29:26.696Z,25.33
2018-07-26T16:31:55.012Z,21.57
2018-07-26T16:34:23.356Z,13.37
2018-07-26T16:36:51.661Z,20.13
2018-07-26T16:39:20.044Z,14.13
2018-07-26T16:41:48.328Z,14.20
2018-07-26T16:44:16.626Z,9.97
2018-07-26T16:46:44.943Z,8.67
2018-07-26T16:49:13.227Z,6.00
2018-07-26T16:51:41.566Z,8.37
2018-07-26T16:54:09.860Z,3.70
2018-07-26T16:56:38.107Z,6.40
2018-07-26T16:59:06.136Z,7.67
2018-07-26T17:01:34.445Z,6.03
2018-07-26T17:04:02.786Z,5.10
2018-07-26T17:06:30.815Z,6.27
2018-07-26T17:08:59.101Z,3.77
2018-07-26T17:11:27.381Z,4.20
2018-07-26T17:13:55.718Z,3.00
2018-07-26T17:16:23.725Z,3.43
2018-07-26T17:18:52.066Z,4.73
2018-07-26T17:21:20.415Z,3.70
2018-07-26T17:23:48.711Z,3.03
2018-07-26T17:26:17.067Z,2.90
2018-07-26T17:28:45.324Z,5.80
2018-07-26T17:31:13.618Z,6.37
2018-07-26T17:33:41.899Z,4.50
2018-07-26T17:36:10.186Z,3.30
2018-07-26T17:38:38.490Z,5.03
2018-07-26T17:41:06.782Z,3.17
2018-07-26T17:43:35.103Z,3.30
2018-07-26T17:46:03.102Z,3.20
2018-07-26T17:48:31.748Z,3.03
2018-07-26T17:51:00.083Z,2.90
2018-07-26T17:53:28.369Z,3.30
2018-07-26T17:55:56.644Z,2.93
2018-07-26T17:58:24.941Z,3.20
2018-07-26T18:00:53.220Z,2.93
2018-07-26T18:03:21.523Z,4.43
2018-07-26T18:05:49.886Z,2.93
2018-07-26T18:08:17.852Z,3.67
2018-07-26T18:10:46.181Z,2.83
2018-07-26T18:13:14.450Z,2.80
2018-07-26T18:15:42.774Z,3.00
2018-07-26T18:18:10.788Z,3.73
2018-07-26T18:20:39.060Z,2.80
2018-07-26T18:23:07.347Z,2.90
2018-07-26T18:25:36.053Z,2.93
2018-07-26T18:28:04.336Z,2.40
2018-07-26T18:30:32.623Z,3.03
2018-07-26T18:33:00.906Z,2.53
2018-07-26T18:35:29.208Z,2.60
2018-07-26T18:37:57.512Z,2.67
2018-07-26T18:40:25.788Z,2.77
2018-07-26T18:42:54.060Z,2.80
2018-07-26T18:45:22.346Z,2.70
2018-07-26T18:47:50.651Z,2.40
2018-07-26T18:50:18.686Z,3.53
2018-07-26T18:52:47.005Z,3.03
2018-07-26T18:55:15.264Z,2.70
2018-07-26T18:57:43.562Z,2.80
2018-07-26T19:00:13.272Z,2.57
2018-07-26T19:02:42.064Z,2.40
2018-07-26T19:05:10.422Z,2.30
2018-07-26T19:07:38.726Z,2.53
2018-07-26T19:10:08.976Z,2.57
2018-07-26T19:12:37.877Z,2.30
2018-07-26T19:15:06.726Z,2.83
2018-07-26T19:17:34.786Z,2.63
2018-07-26T19:20:03.121Z,6.30
2018-07-26T19:22:31.406Z,2.50
2018-07-26T19:24:59.429Z,2.53
2018-07-26T19:27:27.728Z,3.20
2018-07-26T19:29:56.020Z,2.50
2018-07-26T19:32:24.318Z,2.73
2018-07-26T19:34:52.590Z,2.67
2018-07-26T19:37:20.886Z,2.70
2018-07-26T19:39:49.174Z,2.73
2018-07-26T19:42:17.572Z,2.60
2018-07-26T19:44:45.873Z,2.50
2018-07-26T19:47:14.162Z,2.90
2018-07-26T19:49:42.520Z,2.50
2018-07-26T19:52:10.820Z,2.50
2018-07-26T19:54:39.244Z,2.90
2018-07-26T19:57:07.913Z,2.63
2018-07-26T19:59:36.508Z,2.33
2018-07-26T20:02:04.778Z,2.93
2018-07-26T20:04:33.105Z,3.00
2018-07-26T20:07:01.388Z,2.70
2018-07-26T20:09:29.700Z,2.70
2018-07-26T20:11:58.120Z,2.80
2018-07-26T20:14:26.441Z,3.33
2018-07-26T20:16:54.806Z,2.97
2018-07-26T20:19:23.189Z,2.63
2018-07-26T20:21:51.475Z,3.50
2018-07-26T20:24:19.858Z,2.70
2018-07-26T20:26:48.240Z,2.67
2018-07-26T20:29:16.504Z,2.87
2018-07-26T20:31:44.836Z,3.07
2018-07-26T20:34:13.151Z,2.93
2018-07-26T20:36:41.472Z,3.00
2018-07-26T20:39:12.053Z,2.60
2018-07-26T20:41:40.504Z,2.60
2018-07-26T20:44:09.142Z,2.60
2018-07-26T20:46:37.664Z,2.87
2018-07-26T20:49:06.008Z,2.80
2018-07-26T20:51:34.337Z,2.83
2018-07-26T20:54:02.648Z,2.77
2018-07-26T20:56:30.962Z,2.77
2018-07-26T20:58:59.264Z,2.83
2018-07-26T21:01:27.561Z,3.10
2018-07-26T21:03:55.897Z,2.70
2018-07-26T21:06:23.955Z,3.10
2018-07-26T21:08:52.261Z,2.63
2018-07-26T21:11:20.353Z,3.07
2018-07-26T21:16:28.953Z,3.13
2018-07-26T21:18:57.271Z,3.03
2018-07-26T21:21:25.583Z,2.83
2018-07-26T21:23:53.880Z,2.93
2018-07-26T21:26:22.173Z,3.17
2018-07-26T21:28:50.213Z,2.90
2018-07-26T21:31:18.541Z,2.97
2018-07-26T21:33:46.865Z,2.83
2018-07-26T21:36:15.174Z,3.20
2018-07-26T21:38:43.471Z,3.40
2018-07-26T21:41:11.781Z,3.50
2018-07-26T21:43:40.093Z,3.07
2018-07-26T21:46:08.487Z,3.40
2018-07-26T21:48:36.782Z,3.30
2018-07-26T21:51:05.187Z,3.87
2018-07-26T21:53:33.466Z,3.30
2018-07-26T21:56:01.758Z,3.10
2018-07-26T21:58:30.085Z,3.00
2018-07-26T22:00:59.283Z,3.07
2018-07-26T22:03:29.538Z,2.90
2018-07-26T22:05:57.865Z,3.40
2018-07-26T22:08:26.165Z,3.27
2018-07-26T22:10:54.456Z,3.57
2018-07-26T22:13:22.782Z,2.97
2018-07-26T22:15:52.127Z,2.70
2018-07-26T22:18:20.929Z,2.93
2018-07-26T22:20:49.572Z,3.03
2018-07-26T22:23:17.924Z,3.07
2018-07-26T22:25:48.045Z,2.93
2018-07-26T22:28:16.549Z,3.10
2018-07-26T22:30:45.307Z,3.47
2018-07-26T22:33:13.671Z,3.00
2018-07-26T22:35:42.804Z,3.10
2018-07-26T22:38:11.601Z,3.20
2018-07-26T22:40:39.896Z,2.60
2018-07-26T22:43:08.363Z,3.20
2018-07-26T22:45:37.148Z,3.00
2018-07-26T22:48:05.448Z,2.87
2018-07-26T22:50:33.473Z,3.20
2018-07-26T22:53:01.799Z,3.20
2018-07-26T22:55:30.086Z,3.17
2018-07-26T22:57:58.665Z,2.80
2018-07-26T23:00:26.967Z,2.80
2018-07-26T23:02:54.979Z,3.10
2018-07-26T23:05:23.402Z,3.10
2018-07-26T23:07:51.742Z,2.97
2018-07-26T23:10:20.041Z,2.97
2018-07-26T23:12:48.337Z,3.10
2018-07-26T23:15:16.648Z,3.00
2018-07-26T23:17:45.026Z,3.10
2018-07-26T23:20:13.303Z,3.33
2018-07-26T23:22:41.654Z,3.10
2018-07-26T23:25:09.986Z,3.30
2018-07-26T23:27:38.282Z,3.13
2018-07-26T23:30:09.985Z,3.17
2018-07-26T23:32:38.322Z,3.20
2018-07-26T23:35:07.041Z,3.23
2018-07-26T23:37:35.321Z,3.20
2018-07-26T23:40:03.658Z,3.27
2018-07-26T23:42:31.942Z,2.90
2018-07-26T23:45:00.258Z,3.20
2018-07-26T23:47:28.562Z,3.20
2018-07-26T23:49:56.881Z,2.90
2018-07-26T23:52:25.167Z,3.23
2018-07-26T23:54:53.491Z,3.23
2018-07-26T23:57:21.791Z,3.33
2018-07-26T23:59:50.099Z,2.93
